sensor_id;sensor_type;location;lat;lon;timestamp;temperature;humidity
8422;DHT22;4248;48.196;10.924;2024-01-06T00:02:08;7.40;50.40
8422;DHT22;4248;48.196;10.924;2024-01-06T00:04:33;7.40;51.60
8422;DHT22;4248;48.196;10.924;2024-01-06T00:06:59;7.40;50.40
8422;DHT22;4248;48.196;10.924;2024-01-06T00:09:24;7.40;50.40
8422;DHT22;4248;48.196;10.924;2024-01-06T00:11:50;7.40;50.40
8422;DHT22;4248;48.196;10.924;2024-01-06T00:14:16;7.40;50.40
8422;DHT22;4248;48.196;10.924;2024-01-06T00:16:41;7.40;50.50
8422;DHT22;4248;48.196;10.924;2024-01-06T00:19:07;7.40;50.40
8422;DHT22;4248;48.196;10.924;2024-01-06T00:21:32;7.40;50.40
8422;DHT22;4248;48.196;10.924;2024-01-06T00:23:58;7.40;50.40
8422;DHT22;4248;48.196;10.924;2024-01-06T00:26:23;7.40;50.50
8422;DHT22;4248;48.196;10.924;2024-01-06T00:28:50;7.40;50.40
8422;DHT22;4248;48.196;10.924;2024-01-06T00:31:16;7.50;50.10
8422;DHT22;4248;48.196;10.924;2024-01-06T00:33:45;7.50;49.70
8422;DHT22;4248;48.196;10.924;2024-01-06T00:36:10;7.50;49.40
8422;DHT22;4248;48.196;10.924;2024-01-06T00:38:36;7.40;49.30
8422;DHT22;4248;48.196;10.924;2024-01-06T00:41:02;7.40;49.70
8422;DHT22;4248;48.196;10.924;2024-01-06T00:43:27;7.40;50.40
8422;DHT22;4248;48.196;10.924;2024-01-06T00:45:53;7.40;50.40
8422;DHT22;4248;48.196;10.924;2024-01-06T00:48:18;7.40;50.50
8422;DHT22;4248;48.196;10.924;2024-01-06T00:50:44;7.30;50.30
8422;DHT22;4248;48.196;10.924;2024-01-06T00:53:10;7.30;50.30
8422;DHT22;4248;48.196;10.924;2024-01-06T00:55:36;7.30;50.30
8422;DHT22;4248;48.196;10.924;2024-01-06T00:58:02;7.30;50.30
8422;DHT22;4248;48.196;10.924;2024-01-06T01:00:27;7.30;50.40
8422;DHT22;4248;48.196;10.924;2024-01-06T01:02:53;7.30;50.30
8422;DHT22;4248;48.196;10.924;2024-01-06T01:05:19;7.40;50.40
8422;DHT22;4248;48.196;10.924;2024-01-06T01:07:44;7.30;50.30
8422;DHT22;4248;48.196;10.924;2024-01-06T01:10:10;7.40;50.40
8422;DHT22;4248;48.196;10.924;2024-01-06T01:12:36;7.30;50.30
8422;DHT22;4248;48.196;10.924;2024-01-06T01:15:02;7.30;50.30
8422;DHT22;4248;48.196;10.924;2024-01-06T01:17:28;7.30;50.40
8422;DHT22;4248;48.196;10.924;2024-01-06T01:19:54;7.30;50.30
8422;DHT22;4248;48.196;10.924;2024-01-06T01:22:20;7.30;50.30
8422;DHT22;4248;48.196;10.924;2024-01-06T01:24:46;7.30;50.30
8422;DHT22;4248;48.196;10.924;2024-01-06T01:27:12;7.30;50.40
8422;DHT22;4248;48.196;10.924;2024-01-06T01:29:37;7.30;50.40
8422;DHT22;4248;48.196;10.924;2024-01-06T01:32:03;7.30;50.30
8422;DHT22;4248;48.196;10.924;2024-01-06T01:34:29;7.20;50.50
8422;DHT22;4248;48.196;10.924;2024-01-06T01:36:55;7.20;50.80
8422;DHT22;4248;48.196;10.924;2024-01-06T01:39:20;7.20;51.10
8422;DHT22;4248;48.196;10.924;2024-01-06T01:41:46;7.20;51.20
8422;DHT22;4248;48.196;10.924;2024-01-06T01:44:12;7.20;51.20
8422;DHT22;4248;48.196;10.924;2024-01-06T01:46:37;7.20;51.30
8422;DHT22;4248;48.196;10.924;2024-01-06T01:49:04;7.10;51.10
8422;DHT22;4248;48.196;10.924;2024-01-06T01:51:32;7.10;51.20
8422;DHT22;4248;48.196;10.924;2024-01-06T01:54:01;7.10;51.50
8422;DHT22;4248;48.196;10.924;2024-01-06T01:56:27;7.10;51.60
8422;DHT22;4248;48.196;10.924;2024-01-06T01:58:53;7.10;51.80
8422;DHT22;4248;48.196;10.924;2024-01-06T02:01:19;7.10;52.10
8422;DHT22;4248;48.196;10.924;2024-01-06T02:03:45;7.10;52.20
8422;DHT22;4248;48.196;10.924;2024-01-06T02:06:11;7.00;52.30
8422;DHT22;4248;48.196;10.924;2024-01-06T02:08:38;7.00;52.50
8422;DHT22;4248;48.196;10.924;2024-01-06T02:11:04;7.00;52.60
8422;DHT22;4248;48.196;10.924;2024-01-06T02:13:36;7.00;52.80
8422;DHT22;4248;48.196;10.924;2024-01-06T02:16:05;7.00;52.80
8422;DHT22;4248;48.196;10.924;2024-01-06T02:18:32;7.10;53.90
8422;DHT22;4248;48.196;10.924;2024-01-06T02:20:59;7.00;52.60
8422;DHT22;4248;48.196;10.924;2024-01-06T02:23:28;7.10;52.70
8422;DHT22;4248;48.196;10.924;2024-01-06T02:25:54;7.00;52.70
8422;DHT22;4248;48.196;10.924;2024-01-06T02:28:20;7.00;52.80
8422;DHT22;4248;48.196;10.924;2024-01-06T02:30:45;7.00;52.70
8422;DHT22;4248;48.196;10.924;2024-01-06T02:33:11;7.00;52.50
8422;DHT22;4248;48.196;10.924;2024-01-06T02:35:36;7.00;52.50
8422;DHT22;4248;48.196;10.924;2024-01-06T02:38:04;7.00;53.50
8422;DHT22;4248;48.196;10.924;2024-01-06T02:40:30;7.00;52.60
8422;DHT22;4248;48.196;10.924;2024-01-06T02:42:55;7.00;52.50
8422;DHT22;4248;48.196;10.924;2024-01-06T02:45:21;7.00;52.50
8422;DHT22;4248;48.196;10.924;2024-01-06T02:47:46;6.90;52.50
8422;DHT22;4248;48.196;10.924;2024-01-06T02:50:12;6.90;52.70
8422;DHT22;4248;48.196;10.924;2024-01-06T02:52:37;6.90;52.60
8422;DHT22;4248;48.196;10.924;2024-01-06T02:55:03;6.90;52.40
8422;DHT22;4248;48.196;10.924;2024-01-06T02:57:30;6.90;52.40
8422;DHT22;4248;48.196;10.924;2024-01-06T02:59:55;6.90;52.30
8422;DHT22;4248;48.196;10.924;2024-01-06T03:02:21;6.90;52.00
8422;DHT22;4248;48.196;10.924;2024-01-06T03:04:46;6.90;52.10
8422;DHT22;4248;48.196;10.924;2024-01-06T03:07:12;6.90;52.10
8422;DHT22;4248;48.196;10.924;2024-01-06T03:09:37;6.90;53.30
8422;DHT22;4248;48.196;10.924;2024-01-06T03:12:05;6.90;52.40
8422;DHT22;4248;48.196;10.924;2024-01-06T03:14:31;6.90;52.30
8422;DHT22;4248;48.196;10.924;2024-01-06T03:16:57;6.90;52.10
8422;DHT22;4248;48.196;10.924;2024-01-06T03:19:24;6.80;52.20
8422;DHT22;4248;48.196;10.924;2024-01-06T03:21:51;6.80;52.20
8422;DHT22;4248;48.196;10.924;2024-01-06T03:24:17;6.80;52.20
8422;DHT22;4248;48.196;10.924;2024-01-06T03:26:42;6.80;52.00
8422;DHT22;4248;48.196;10.924;2024-01-06T03:29:08;6.80;51.70
8422;DHT22;4248;48.196;10.924;2024-01-06T03:31:33;6.80;51.60
8422;DHT22;4248;48.196;10.924;2024-01-06T03:33:59;6.80;51.60
8422;DHT22;4248;48.196;10.924;2024-01-06T03:36:25;6.80;51.80
8422;DHT22;4248;48.196;10.924;2024-01-06T03:38:50;6.80;51.90
8422;DHT22;4248;48.196;10.924;2024-01-06T03:41:16;6.80;51.70
8422;DHT22;4248;48.196;10.924;2024-01-06T03:43:42;6.80;51.80
8422;DHT22;4248;48.196;10.924;2024-01-06T03:46:07;6.80;51.80
8422;DHT22;4248;48.196;10.924;2024-01-06T03:48:33;6.70;52.20
8422;DHT22;4248;48.196;10.924;2024-01-06T03:51:02;6.50;52.40
8422;DHT22;4248;48.196;10.924;2024-01-06T03:53:27;6.50;52.50
8422;DHT22;4248;48.196;10.924;2024-01-06T03:55:53;6.40;52.50
8422;DHT22;4248;48.196;10.924;2024-01-06T03:58:19;6.40;52.40
8422;DHT22;4248;48.196;10.924;2024-01-06T04:00:44;6.40;52.00
8422;DHT22;4248;48.196;10.924;2024-01-06T04:03:10;6.30;51.80
8422;DHT22;4248;48.196;10.924;2024-01-06T04:05:35;6.10;52.20
8422;DHT22;4248;48.196;10.924;2024-01-06T04:08:01;5.90;53.30
8422;DHT22;4248;48.196;10.924;2024-01-06T04:10:26;5.70;54.30
8422;DHT22;4248;48.196;10.924;2024-01-06T04:12:52;5.70;54.90
8422;DHT22;4248;48.196;10.924;2024-01-06T04:15:17;5.70;54.80
8422;DHT22;4248;48.196;10.924;2024-01-06T04:17:43;5.70;54.40
8422;DHT22;4248;48.196;10.924;2024-01-06T04:20:09;5.50;54.90
8422;DHT22;4248;48.196;10.924;2024-01-06T04:22:38;5.40;55.90
8422;DHT22;4248;48.196;10.924;2024-01-06T04:25:04;5.30;56.60
8422;DHT22;4248;48.196;10.924;2024-01-06T04:27:29;5.30;56.80
8422;DHT22;4248;48.196;10.924;2024-01-06T04:29:56;5.30;56.70
8422;DHT22;4248;48.196;10.924;2024-01-06T04:32:22;5.30;56.80
8422;DHT22;4248;48.196;10.924;2024-01-06T04:34:47;5.30;56.80
8422;DHT22;4248;48.196;10.924;2024-01-06T04:37:13;5.30;57.00
8422;DHT22;4248;48.196;10.924;2024-01-06T04:39:38;5.10;57.60
8422;DHT22;4248;48.196;10.924;2024-01-06T04:42:04;5.10;57.80
8422;DHT22;4248;48.196;10.924;2024-01-06T04:44:30;5.00;58.40
8422;DHT22;4248;48.196;10.924;2024-01-06T04:46:56;4.90;58.60
8422;DHT22;4248;48.196;10.924;2024-01-06T04:49:21;4.90;59.10
8422;DHT22;4248;48.196;10.924;2024-01-06T04:51:48;4.80;59.50
8422;DHT22;4248;48.196;10.924;2024-01-06T04:54:13;4.80;59.50
8422;DHT22;4248;48.196;10.924;2024-01-06T04:56:39;4.80;59.40
8422;DHT22;4248;48.196;10.924;2024-01-06T04:59:05;4.80;59.60
8422;DHT22;4248;48.196;10.924;2024-01-06T05:01:31;4.80;59.40
8422;DHT22;4248;48.196;10.924;2024-01-06T05:03:56;4.80;59.40
8422;DHT22;4248;48.196;10.924;2024-01-06T05:06:23;4.80;59.30
8422;DHT22;4248;48.196;10.924;2024-01-06T05:08:49;4.80;59.40
8422;DHT22;4248;48.196;10.924;2024-01-06T05:11:14;4.90;59.00
8422;DHT22;4248;48.196;10.924;2024-01-06T05:13:40;5.00;58.50
8422;DHT22;4248;48.196;10.924;2024-01-06T05:16:07;5.00;58.10
8422;DHT22;4248;48.196;10.924;2024-01-06T05:18:32;5.00;58.00
8422;DHT22;4248;48.196;10.924;2024-01-06T05:20:58;5.10;58.10
8422;DHT22;4248;48.196;10.924;2024-01-06T05:23:23;5.10;57.90
8422;DHT22;4248;48.196;10.924;2024-01-06T05:25:49;5.20;57.60
8422;DHT22;4248;48.196;10.924;2024-01-06T05:28:14;5.20;57.20
8422;DHT22;4248;48.196;10.924;2024-01-06T05:30:40;5.20;57.30
8422;DHT22;4248;48.196;10.924;2024-01-06T05:33:08;5.20;57.20
8422;DHT22;4248;48.196;10.924;2024-01-06T05:35:34;5.20;57.40
8422;DHT22;4248;48.196;10.924;2024-01-06T05:38:00;5.20;57.50
8422;DHT22;4248;48.196;10.924;2024-01-06T05:40:26;5.10;57.70
8422;DHT22;4248;48.196;10.924;2024-01-06T05:42:51;5.10;57.70
8422;DHT22;4248;48.196;10.924;2024-01-06T05:45:21;5.10;57.80
8422;DHT22;4248;48.196;10.924;2024-01-06T05:47:46;5.10;57.60
8422;DHT22;4248;48.196;10.924;2024-01-06T05:50:15;5.10;57.60
8422;DHT22;4248;48.196;10.924;2024-01-06T05:52:41;5.20;57.40
8422;DHT22;4248;48.196;10.924;2024-01-06T05:55:07;5.10;57.30
8422;DHT22;4248;48.196;10.924;2024-01-06T05:57:32;5.20;57.40
8422;DHT22;4248;48.196;10.924;2024-01-06T05:59:59;5.30;57.00
8422;DHT22;4248;48.196;10.924;2024-01-06T06:02:24;5.40;56.60
8422;DHT22;4248;48.196;10.924;2024-01-06T06:04:51;5.50;56.30
8422;DHT22;4248;48.196;10.924;2024-01-06T06:07:17;5.50;56.10
8422;DHT22;4248;48.196;10.924;2024-01-06T06:09:43;5.50;55.90
8422;DHT22;4248;48.196;10.924;2024-01-06T06:12:09;5.60;55.80
8422;DHT22;4248;48.196;10.924;2024-01-06T06:14:34;5.60;55.70
8422;DHT22;4248;48.196;10.924;2024-01-06T06:17:00;5.70;55.60
8422;DHT22;4248;48.196;10.924;2024-01-06T06:19:25;5.70;55.50
8422;DHT22;4248;48.196;10.924;2024-01-06T06:21:52;5.70;55.50
8422;DHT22;4248;48.196;10.924;2024-01-06T06:24:17;5.70;55.70
8422;DHT22;4248;48.196;10.924;2024-01-06T06:26:43;5.70;55.70
8422;DHT22;4248;48.196;10.924;2024-01-06T06:29:08;5.70;55.80
8422;DHT22;4248;48.196;10.924;2024-01-06T06:31:34;5.60;55.80
8422;DHT22;4248;48.196;10.924;2024-01-06T06:33:59;5.60;55.80
8422;DHT22;4248;48.196;10.924;2024-01-06T06:36:25;5.60;56.00
8422;DHT22;4248;48.196;10.924;2024-01-06T06:38:51;5.60;56.00
8422;DHT22;4248;48.196;10.924;2024-01-06T06:41:16;5.70;55.70
8422;DHT22;4248;48.196;10.924;2024-01-06T06:43:42;5.70;55.70
8422;DHT22;4248;48.196;10.924;2024-01-06T06:46:08;5.70;55.70
8422;DHT22;4248;48.196;10.924;2024-01-06T06:48:33;5.70;55.70
8422;DHT22;4248;48.196;10.924;2024-01-06T06:51:01;5.70;55.80
8422;DHT22;4248;48.196;10.924;2024-01-06T06:53:27;5.60;55.90
8422;DHT22;4248;48.196;10.924;2024-01-06T06:55:53;5.60;56.00
8422;DHT22;4248;48.196;10.924;2024-01-06T06:58:19;5.60;56.00
8422;DHT22;4248;48.196;10.924;2024-01-06T07:00:44;5.60;56.00
8422;DHT22;4248;48.196;10.924;2024-01-06T07:03:10;5.70;56.00
8422;DHT22;4248;48.196;10.924;2024-01-06T07:05:35;5.70;55.70
8422;DHT22;4248;48.196;10.924;2024-01-06T07:08:01;5.70;55.70
8422;DHT22;4248;48.196;10.924;2024-01-06T07:10:27;5.70;55.60
8422;DHT22;4248;48.196;10.924;2024-01-06T07:12:52;5.70;55.70
8422;DHT22;4248;48.196;10.924;2024-01-06T07:15:18;5.70;55.70
8422;DHT22;4248;48.196;10.924;2024-01-06T07:17:44;5.70;55.60
8422;DHT22;4248;48.196;10.924;2024-01-06T07:20:09;5.70;55.70
8422;DHT22;4248;48.196;10.924;2024-01-06T07:22:36;5.70;55.80
8422;DHT22;4248;48.196;10.924;2024-01-06T07:25:01;5.70;55.80
8422;DHT22;4248;48.196;10.924;2024-01-06T07:27:27;5.70;55.70
8422;DHT22;4248;48.196;10.924;2024-01-06T07:29:53;5.60;55.70
8422;DHT22;4248;48.196;10.924;2024-01-06T07:32:18;5.60;55.90
8422;DHT22;4248;48.196;10.924;2024-01-06T07:34:44;5.60;55.70
8422;DHT22;4248;48.196;10.924;2024-01-06T07:37:09;5.60;55.60
8422;DHT22;4248;48.196;10.924;2024-01-06T07:39:35;5.70;55.70
8422;DHT22;4248;48.196;10.924;2024-01-06T07:42:00;5.70;55.60
8422;DHT22;4248;48.196;10.924;2024-01-06T07:44:27;5.70;55.60
8422;DHT22;4248;48.196;10.924;2024-01-06T07:46:52;5.70;55.70
8422;DHT22;4248;48.196;10.924;2024-01-06T07:49:18;5.70;55.60
8422;DHT22;4248;48.196;10.924;2024-01-06T07:51:44;5.80;55.50
8422;DHT22;4248;48.196;10.924;2024-01-06T07:54:09;5.80;55.30
8422;DHT22;4248;48.196;10.924;2024-01-06T07:56:37;5.80;55.40
8422;DHT22;4248;48.196;10.924;2024-01-06T07:59:03;5.80;55.30
8422;DHT22;4248;48.196;10.924;2024-01-06T08:01:28;5.80;55.20
8422;DHT22;4248;48.196;10.924;2024-01-06T08:03:54;5.80;55.20
8422;DHT22;4248;48.196;10.924;2024-01-06T08:06:19;5.80;55.20
8422;DHT22;4248;48.196;10.924;2024-01-06T08:08:45;5.90;55.20
8422;DHT22;4248;48.196;10.924;2024-01-06T08:11:11;5.90;55.30
8422;DHT22;4248;48.196;10.924;2024-01-06T08:13:37;5.90;55.30
8422;DHT22;4248;48.196;10.924;2024-01-06T08:16:03;5.90;55.80
8422;DHT22;4248;48.196;10.924;2024-01-06T08:18:29;5.90;55.20
8422;DHT22;4248;48.196;10.924;2024-01-06T08:20:55;5.90;55.10
8422;DHT22;4248;48.196;10.924;2024-01-06T08:23:21;5.90;55.00
8422;DHT22;4248;48.196;10.924;2024-01-06T08:25:46;6.00;55.00
8422;DHT22;4248;48.196;10.924;2024-01-06T08:28:13;6.00;54.90
8422;DHT22;4248;48.196;10.924;2024-01-06T08:30:40;6.00;55.00
8422;DHT22;4248;48.196;10.924;2024-01-06T08:33:06;6.00;55.00
8422;DHT22;4248;48.196;10.924;2024-01-06T08:35:31;5.90;55.50
8422;DHT22;4248;48.196;10.924;2024-01-06T08:37:57;6.00;55.10
8422;DHT22;4248;48.196;10.924;2024-01-06T08:40:23;5.90;55.10
8422;DHT22;4248;48.196;10.924;2024-01-06T08:42:49;5.90;55.20
8422;DHT22;4248;48.196;10.924;2024-01-06T08:45:14;5.90;55.00
8422;DHT22;4248;48.196;10.924;2024-01-06T08:47:40;5.90;54.80
8422;DHT22;4248;48.196;10.924;2024-01-06T08:50:06;6.00;54.50
8422;DHT22;4248;48.196;10.924;2024-01-06T08:52:32;6.00;54.40
8422;DHT22;4248;48.196;10.924;2024-01-06T08:54:57;6.00;54.60
8422;DHT22;4248;48.196;10.924;2024-01-06T08:57:23;6.00;54.60
8422;DHT22;4248;48.196;10.924;2024-01-06T08:59:48;6.10;54.60
8422;DHT22;4248;48.196;10.924;2024-01-06T09:02:14;6.10;54.60
8422;DHT22;4248;48.196;10.924;2024-01-06T09:04:40;6.10;54.60
8422;DHT22;4248;48.196;10.924;2024-01-06T09:07:05;6.20;54.40
8422;DHT22;4248;48.196;10.924;2024-01-06T09:09:31;6.20;54.20
8422;DHT22;4248;48.196;10.924;2024-01-06T09:11:57;6.30;54.10
8422;DHT22;4248;48.196;10.924;2024-01-06T09:14:22;6.30;54.00
8422;DHT22;4248;48.196;10.924;2024-01-06T09:16:48;6.30;54.10
8422;DHT22;4248;48.196;10.924;2024-01-06T09:19:14;6.30;54.10
8422;DHT22;4248;48.196;10.924;2024-01-06T09:21:39;6.30;54.00
8422;DHT22;4248;48.196;10.924;2024-01-06T09:24:05;6.30;54.10
8422;DHT22;4248;48.196;10.924;2024-01-06T09:26:34;6.30;55.40
8422;DHT22;4248;48.196;10.924;2024-01-06T09:29:01;6.40;53.80
8422;DHT22;4248;48.196;10.924;2024-01-06T09:31:27;6.40;53.70
8422;DHT22;4248;48.196;10.924;2024-01-06T09:33:52;6.40;53.80
8422;DHT22;4248;48.196;10.924;2024-01-06T09:36:18;6.50;54.90
8422;DHT22;4248;48.196;10.924;2024-01-06T09:38:44;6.40;53.90
8422;DHT22;4248;48.196;10.924;2024-01-06T09:41:09;6.40;53.90
8422;DHT22;4248;48.196;10.924;2024-01-06T09:43:35;6.30;54.00
8422;DHT22;4248;48.196;10.924;2024-01-06T09:46:28;6.40;53.90
8422;DHT22;4248;48.196;10.924;2024-01-06T09:48:55;6.40;53.90
8422;DHT22;4248;48.196;10.924;2024-01-06T09:51:22;6.40;53.90
8422;DHT22;4248;48.196;10.924;2024-01-06T09:53:57;6.40;53.80
8422;DHT22;4248;48.196;10.924;2024-01-06T09:56:25;6.40;53.70
8422;DHT22;4248;48.196;10.924;2024-01-06T09:58:51;6.40;53.90
8422;DHT22;4248;48.196;10.924;2024-01-06T10:01:20;6.30;54.00
8422;DHT22;4248;48.196;10.924;2024-01-06T10:03:46;6.40;54.00
8422;DHT22;4248;48.196;10.924;2024-01-06T10:06:14;6.30;53.80
8422;DHT22;4248;48.196;10.924;2024-01-06T10:08:48;6.40;53.80
8422;DHT22;4248;48.196;10.924;2024-01-06T10:11:14;6.30;53.80
8422;DHT22;4248;48.196;10.924;2024-01-06T10:13:40;6.30;53.80
8422;DHT22;4248;48.196;10.924;2024-01-06T10:16:06;6.30;54.00
8422;DHT22;4248;48.196;10.924;2024-01-06T10:18:32;6.30;53.80
8422;DHT22;4248;48.196;10.924;2024-01-06T10:20:58;6.40;53.80
8422;DHT22;4248;48.196;10.924;2024-01-06T10:23:26;6.40;55.00
8422;DHT22;4248;48.196;10.924;2024-01-06T10:25:55;6.40;53.60
8422;DHT22;4248;48.196;10.924;2024-01-06T10:28:22;6.50;53.50
8422;DHT22;4248;48.196;10.924;2024-01-06T10:30:54;6.50;53.10
8422;DHT22;4248;48.196;10.924;2024-01-06T10:33:21;6.60;53.20
8422;DHT22;4248;48.196;10.924;2024-01-06T10:35:47;6.60;52.90
8422;DHT22;4248;48.196;10.924;2024-01-06T10:38:13;6.60;53.00
8422;DHT22;4248;48.196;10.924;2024-01-06T10:40:40;6.60;53.10
8422;DHT22;4248;48.196;10.924;2024-01-06T10:43:21;6.50;53.10
8422;DHT22;4248;48.196;10.924;2024-01-06T10:45:49;6.50;53.10
8422;DHT22;4248;48.196;10.924;2024-01-06T10:48:15;6.50;53.10
8422;DHT22;4248;48.196;10.924;2024-01-06T10:50:42;6.50;53.20
8422;DHT22;4248;48.196;10.924;2024-01-06T10:53:09;6.50;53.30
8422;DHT22;4248;48.196;10.924;2024-01-06T10:55:37;6.40;53.40
8422;DHT22;4248;48.196;10.924;2024-01-06T10:58:04;6.40;54.60
8422;DHT22;4248;48.196;10.924;2024-01-06T11:00:31;6.40;53.50
8422;DHT22;4248;48.196;10.924;2024-01-06T11:02:58;6.40;53.30
8422;DHT22;4248;48.196;10.924;2024-01-06T11:05:25;6.40;53.30
8422;DHT22;4248;48.196;10.924;2024-01-06T11:07:52;6.40;53.40
8422;DHT22;4248;48.196;10.924;2024-01-06T11:10:21;6.40;53.20
8422;DHT22;4248;48.196;10.924;2024-01-06T11:13:09;6.50;53.10
8422;DHT22;4248;48.196;10.924;2024-01-06T11:15:40;6.50;52.90
8422;DHT22;4248;48.196;10.924;2024-01-06T11:18:06;6.40;53.10
8422;DHT22;4248;48.196;10.924;2024-01-06T11:20:32;6.40;53.10
8422;DHT22;4248;48.196;10.924;2024-01-06T11:23:18;6.40;52.90
8422;DHT22;4248;48.196;10.924;2024-01-06T11:25:46;6.40;52.80
8422;DHT22;4248;48.196;10.924;2024-01-06T11:28:11;6.40;52.70
8422;DHT22;4248;48.196;10.924;2024-01-06T11:30:38;6.40;52.70
8422;DHT22;4248;48.196;10.924;2024-01-06T11:33:05;6.30;52.80
8422;DHT22;4248;48.196;10.924;2024-01-06T11:35:31;6.30;53.00
8422;DHT22;4248;48.196;10.924;2024-01-06T11:38:00;6.30;53.00
8422;DHT22;4248;48.196;10.924;2024-01-06T11:40:35;6.30;52.90
8422;DHT22;4248;48.196;10.924;2024-01-06T11:43:07;6.30;52.90
8422;DHT22;4248;48.196;10.924;2024-01-06T11:45:34;6.40;52.70
8422;DHT22;4248;48.196;10.924;2024-01-06T11:48:04;6.40;52.50
8422;DHT22;4248;48.196;10.924;2024-01-06T11:50:38;6.50;52.40
8422;DHT22;4248;48.196;10.924;2024-01-06T11:53:05;6.50;52.30
8422;DHT22;4248;48.196;10.924;2024-01-06T11:55:31;6.60;52.30
8422;DHT22;4248;48.196;10.924;2024-01-06T11:57:58;6.60;52.20
8422;DHT22;4248;48.196;10.924;2024-01-06T12:00:27;6.60;52.00
8422;DHT22;4248;48.196;10.924;2024-01-06T12:03:00;6.70;52.10
8422;DHT22;4248;48.196;10.924;2024-01-06T12:05:29;6.70;51.80
8422;DHT22;4248;48.196;10.924;2024-01-06T12:07:58;6.70;51.60
8422;DHT22;4248;48.196;10.924;2024-01-06T12:10:25;6.80;51.60
8422;DHT22;4248;48.196;10.924;2024-01-06T12:13:06;6.80;51.50
8422;DHT22;4248;48.196;10.924;2024-01-06T12:15:36;6.60;51.80
8422;DHT22;4248;48.196;10.924;2024-01-06T12:18:05;6.40;52.00
8422;DHT22;4248;48.196;10.924;2024-01-06T12:20:32;6.40;52.60
8422;DHT22;4248;48.196;10.924;2024-01-06T12:22:58;6.30;52.60
8422;DHT22;4248;48.196;10.924;2024-01-06T12:25:26;6.10;52.80
8422;DHT22;4248;48.196;10.924;2024-01-06T12:27:54;6.00;54.30
8422;DHT22;4248;48.196;10.924;2024-01-06T12:30:22;5.90;53.40
8422;DHT22;4248;48.196;10.924;2024-01-06T12:32:49;5.90;53.60
8422;DHT22;4248;48.196;10.924;2024-01-06T12:35:16;5.90;53.60
8422;DHT22;4248;48.196;10.924;2024-01-06T12:37:42;5.90;53.10
8422;DHT22;4248;48.196;10.924;2024-01-06T12:40:09;6.00;52.80
8422;DHT22;4248;48.196;10.924;2024-01-06T12:42:35;6.00;53.80
8422;DHT22;4248;48.196;10.924;2024-01-06T12:45:02;6.10;52.50
8422;DHT22;4248;48.196;10.924;2024-01-06T12:47:28;6.00;52.70
8422;DHT22;4248;48.196;10.924;2024-01-06T12:49:53;5.90;53.00
8422;DHT22;4248;48.196;10.924;2024-01-06T12:52:19;5.90;53.00
8422;DHT22;4248;48.196;10.924;2024-01-06T12:54:44;5.90;53.00
8422;DHT22;4248;48.196;10.924;2024-01-06T12:57:10;5.90;53.20
8422;DHT22;4248;48.196;10.924;2024-01-06T12:59:37;5.90;53.50
8422;DHT22;4248;48.196;10.924;2024-01-06T13:02:02;5.80;53.40
8422;DHT22;4248;48.196;10.924;2024-01-06T13:04:28;5.80;53.60
8422;DHT22;4248;48.196;10.924;2024-01-06T13:06:54;5.80;53.40
8422;DHT22;4248;48.196;10.924;2024-01-06T13:09:19;5.80;53.30
8422;DHT22;4248;48.196;10.924;2024-01-06T13:11:48;5.90;53.50
8422;DHT22;4248;48.196;10.924;2024-01-06T13:14:17;5.90;53.40
8422;DHT22;4248;48.196;10.924;2024-01-06T13:16:43;5.90;53.30
8422;DHT22;4248;48.196;10.924;2024-01-06T13:19:09;5.90;53.30
8422;DHT22;4248;48.196;10.924;2024-01-06T13:21:34;5.90;53.20
8422;DHT22;4248;48.196;10.924;2024-01-06T13:24:01;5.80;53.30
8422;DHT22;4248;48.196;10.924;2024-01-06T13:26:30;5.80;53.50
8422;DHT22;4248;48.196;10.924;2024-01-06T13:28:56;5.80;53.60
8422;DHT22;4248;48.196;10.924;2024-01-06T13:31:22;5.80;53.40
8422;DHT22;4248;48.196;10.924;2024-01-06T13:33:49;5.90;53.10
8422;DHT22;4248;48.196;10.924;2024-01-06T13:36:17;6.00;52.90
8422;DHT22;4248;48.196;10.924;2024-01-06T13:38:43;6.10;53.00
8422;DHT22;4248;48.196;10.924;2024-01-06T13:41:09;6.10;52.80
8422;DHT22;4248;48.196;10.924;2024-01-06T13:43:35;6.20;52.60
8422;DHT22;4248;48.196;10.924;2024-01-06T13:46:00;6.30;52.20
8422;DHT22;4248;48.196;10.924;2024-01-06T13:48:27;6.40;52.10
8422;DHT22;4248;48.196;10.924;2024-01-06T13:50:52;6.40;51.90
8422;DHT22;4248;48.196;10.924;2024-01-06T13:53:18;6.40;51.70
8422;DHT22;4248;48.196;10.924;2024-01-06T13:55:44;6.40;51.80
8422;DHT22;4248;48.196;10.924;2024-01-06T13:58:10;6.40;51.90
8422;DHT22;4248;48.196;10.924;2024-01-06T14:00:36;6.40;53.30
8422;DHT22;4248;48.196;10.924;2024-01-06T14:03:02;6.40;52.20
8422;DHT22;4248;48.196;10.924;2024-01-06T14:05:28;6.40;52.40
8422;DHT22;4248;48.196;10.924;2024-01-06T14:07:54;6.40;53.50
8422;DHT22;4248;48.196;10.924;2024-01-06T14:10:21;6.40;52.30
8422;DHT22;4248;48.196;10.924;2024-01-06T14:12:46;6.50;52.30
8422;DHT22;4248;48.196;10.924;2024-01-06T14:15:12;6.40;52.30
8422;DHT22;4248;48.196;10.924;2024-01-06T14:17:38;6.50;52.40
8422;DHT22;4248;48.196;10.924;2024-01-06T14:20:05;6.50;52.50
8422;DHT22;4248;48.196;10.924;2024-01-06T14:22:31;6.50;52.50
8422;DHT22;4248;48.196;10.924;2024-01-06T14:24:56;6.40;52.50
8422;DHT22;4248;48.196;10.924;2024-01-06T14:27:22;6.40;52.60
8422;DHT22;4248;48.196;10.924;2024-01-06T14:29:48;6.40;52.50
8422;DHT22;4248;48.196;10.924;2024-01-06T14:32:14;6.40;52.60
8422;DHT22;4248;48.196;10.924;2024-01-06T14:34:39;6.30;52.60
8422;DHT22;4248;48.196;10.924;2024-01-06T14:37:05;6.20;53.00
8422;DHT22;4248;48.196;10.924;2024-01-06T14:39:31;6.00;53.10
8422;DHT22;4248;48.196;10.924;2024-01-06T14:41:56;5.80;53.40
8422;DHT22;4248;48.196;10.924;2024-01-06T14:44:22;5.80;53.80
8422;DHT22;4248;48.196;10.924;2024-01-06T14:46:48;5.70;53.80
8422;DHT22;4248;48.196;10.924;2024-01-06T14:49:16;5.70;53.70
8422;DHT22;4248;48.196;10.924;2024-01-06T14:51:41;5.70;53.60
8422;DHT22;4248;48.196;10.924;2024-01-06T14:54:07;5.70;53.40
8422;DHT22;4248;48.196;10.924;2024-01-06T14:56:37;5.70;53.20
8422;DHT22;4248;48.196;10.924;2024-01-06T14:59:02;5.70;53.00
8422;DHT22;4248;48.196;10.924;2024-01-06T15:01:28;5.80;52.70
8422;DHT22;4248;48.196;10.924;2024-01-06T15:03:53;5.80;52.60
8422;DHT22;4248;48.196;10.924;2024-01-06T15:06:19;5.90;52.40
8422;DHT22;4248;48.196;10.924;2024-01-06T15:08:45;5.90;52.00
8422;DHT22;4248;48.196;10.924;2024-01-06T15:11:10;5.90;51.90
8422;DHT22;4248;48.196;10.924;2024-01-06T15:13:36;5.90;51.90
8422;DHT22;4248;48.196;10.924;2024-01-06T15:16:02;5.90;51.90
8422;DHT22;4248;48.196;10.924;2024-01-06T15:18:28;5.90;51.90
8422;DHT22;4248;48.196;10.924;2024-01-06T15:20:53;5.90;52.00
8422;DHT22;4248;48.196;10.924;2024-01-06T15:23:19;5.90;52.10
8422;DHT22;4248;48.196;10.924;2024-01-06T15:25:45;5.90;52.20
8422;DHT22;4248;48.196;10.924;2024-01-06T15:28:11;5.90;52.30
8422;DHT22;4248;48.196;10.924;2024-01-06T15:30:38;5.90;53.40
8422;DHT22;4248;48.196;10.924;2024-01-06T15:33:04;5.90;52.30
8422;DHT22;4248;48.196;10.924;2024-01-06T15:35:29;5.80;52.20
8422;DHT22;4248;48.196;10.924;2024-01-06T15:37:55;5.90;52.40
8422;DHT22;4248;48.196;10.924;2024-01-06T15:40:21;5.80;52.40
8422;DHT22;4248;48.196;10.924;2024-01-06T15:42:47;5.80;52.60
8422;DHT22;4248;48.196;10.924;2024-01-06T15:45:12;5.80;52.70
8422;DHT22;4248;48.196;10.924;2024-01-06T15:47:38;5.80;52.60
8422;DHT22;4248;48.196;10.924;2024-01-06T15:50:05;5.80;52.50
8422;DHT22;4248;48.196;10.924;2024-01-06T15:52:33;5.80;52.60
8422;DHT22;4248;48.196;10.924;2024-01-06T15:54:59;5.80;52.70
8422;DHT22;4248;48.196;10.924;2024-01-06T15:57:25;5.70;52.70